Time;durP1;ratioP1;P1;durP2;ratioP2;P2;SDS_P1;SDS_P2;PMS_P1;PMS_P2;Temp;Humidity;BMP_temperature;BMP_pressure;BME280_temperature;BME280_humidity;BME280_pressure;Samples;Min_cycle;Max_cycle;Signal;HPM_P1;HPM_P2
2022/10/15 00:00:19;;;;;;;0.00;0.00;;;13.90;99.90;;;;;;5000623;28;20449;-79
2022/10/15 00:02:45;;;;;;;0.00;0.00;;;13.90;99.90;;;;;;5025213;28;20072;-81
2022/10/15 00:05:12;;;;;;;0.00;0.00;;;14.00;99.90;;;;;;5024321;28;20088;-81
2022/10/15 00:07:40;;;;;;;0.00;0.00;;;13.90;99.90;;;;;;5014518;28;20045;-80
2022/10/15 00:10:07;;;;;;;0.00;0.00;;;13.80;99.90;;;;;;5012957;28;20044;-81
2022/10/15 00:12:34;;;;;;;0.00;0.00;;;13.80;99.90;;;;;;5011728;28;20486;-79
2022/10/15 00:15:02;;;;;;;0.00;0.00;;;13.80;99.90;;;;;;5028212;28;20050;-79
2022/10/15 00:17:28;;;;;;;0.00;0.00;;;13.70;99.90;;;;;;5013592;28;20049;-80
2022/10/15 00:19:55;;;;;;;0.00;0.00;;;13.60;99.90;;;;;;5009933;28;20075;-80
2022/10/15 00:22:22;;;;;;;0.00;0.00;;;13.60;99.90;;;;;;5012759;28;20041;-81
2022/10/15 00:24:51;;;;;;;0.00;0.00;;;13.70;99.90;;;;;;5013523;28;20131;-80
2022/10/15 00:27:18;;;;;;;0.00;0.00;;;13.60;99.90;;;;;;5030533;28;20033;-80
2022/10/15 00:29:44;;;;;;;0.00;0.00;;;13.50;99.90;;;;;;5009128;28;20128;-79
2022/10/15 00:32:11;;;;;;;0.00;0.00;;;13.50;99.90;;;;;;5006535;28;20045;-80
2022/10/15 00:34:38;;;;;;;0.00;0.00;;;13.40;99.90;;;;;;5013983;28;20044;-80
2022/10/15 00:37:06;;;;;;;0.00;0.00;;;13.40;99.90;;;;;;5006111;28;20405;-81
2022/10/15 00:39:33;;;;;;;0.00;0.00;;;13.30;99.90;;;;;;5026735;28;20338;-80
2022/10/15 00:42:01;;;;;;;0.00;0.00;;;13.30;99.90;;;;;;5008242;28;20030;-79
2022/10/15 00:44:50;;;;;;;0.00;0.00;;;13.30;99.90;;;;;;5013258;28;20056;-81
2022/10/15 00:47:21;;;;;;;0.00;0.00;;;13.30;99.90;;;;;;5010646;28;20050;-80
2022/10/15 00:49:55;;;;;;;0.00;0.00;;;13.50;99.90;;;;;;5026264;28;20047;-81
2022/10/15 00:52:25;;;;;;;0.00;0.00;;;13.20;99.90;;;;;;5011903;28;20040;-79
2022/10/15 00:54:58;;;;;;;0.00;0.00;;;13.20;99.90;;;;;;5011117;28;20057;-78
2022/10/15 00:57:26;;;;;;;0.00;0.00;;;13.20;99.90;;;;;;5009799;28;20049;-79
2022/10/15 00:59:57;;;;;;;0.00;0.00;;;13.10;99.90;;;;;;5020561;28;20034;-81
2022/10/15 01:02:24;;;;;;;0.00;0.00;;;13.10;99.90;;;;;;5006032;28;20034;-80
2022/10/15 01:04:52;;;;;;;0.00;0.00;;;13.10;99.90;;;;;;5029518;28;20052;-80
2022/10/15 01:07:19;;;;;;;0.00;0.00;;;13.20;99.90;;;;;;5008539;28;20052;-80
2022/10/15 01:09:46;;;;;;;0.00;0.00;;;13.20;99.90;;;;;;5014726;28;20052;-81
2022/10/15 01:12:21;;;;;;;0.00;0.00;;;13.10;99.90;;;;;;5025569;28;20033;-79
2022/10/15 01:14:58;;;;;;;0.00;0.00;;;13.00;99.90;;;;;;5027768;28;20490;-80
2022/10/15 01:17:30;;;;;;;0.00;0.00;;;13.00;99.90;;;;;;5007760;28;20395;-80
2022/10/15 01:20:30;;;;;;;0.00;0.00;;;13.00;99.90;;;;;;5009809;28;20330;-81
2022/10/15 01:23:13;;;;;;;0.00;0.00;;;12.90;99.90;;;;;;5027386;28;20409;-80
2022/10/15 01:25:54;;;;;;;0.00;0.00;;;12.90;99.90;;;;;;5005969;28;20516;-81
2022/10/15 01:28:34;;;;;;;0.00;0.00;;;12.90;99.90;;;;;;5008638;28;20053;-81
2022/10/15 01:31:10;;;;;;;0.00;0.00;;;12.90;99.90;;;;;;5020102;28;20517;-79
2022/10/15 01:33:43;;;;;;;0.00;0.00;;;12.90;99.90;;;;;;5028336;28;20054;-79
2022/10/15 01:36:17;;;;;;;0.00;0.00;;;12.80;99.90;;;;;;5021325;28;20045;-79
2022/10/15 01:38:54;;;;;;;0.03;0.03;;;12.80;99.90;;;;;;5021505;28;20059;-79
2022/10/15 01:41:27;;;;;;;0.00;0.00;;;12.80;99.90;;;;;;5136215;23;20080;-82
2022/10/15 01:43:59;;;;;;;0.08;0.08;;;12.80;99.90;;;;;;4993965;28;20048;-80
2022/10/15 01:46:33;;;;;;;0.00;0.00;;;12.80;99.90;;;;;;4987842;28;20042;-82
2022/10/15 01:49:03;;;;;;;0.00;0.00;;;12.80;99.90;;;;;;5005131;28;20038;-82
2022/10/15 01:51:32;;;;;;;0.00;0.00;;;12.80;99.90;;;;;;4989854;28;20069;-84
2022/10/15 01:54:00;;;;;;;0.00;0.00;;;12.70;99.90;;;;;;4973046;28;20072;-83
2022/10/15 01:56:28;;;;;;;0.00;0.00;;;;;;;;;;4969958;28;20054;-83
2022/10/15 01:58:57;;;;;;;0.00;0.00;;;12.70;99.90;;;;;;4987961;28;20050;-83
2022/10/15 02:01:23;;;;;;;0.00;0.00;;;12.70;99.90;;;;;;4988187;28;20423;-82
2022/10/15 02:03:52;;;;;;;0.00;0.00;;;12.70;99.90;;;;;;4969802;28;21142;-82
2022/10/15 02:06:24;;;;;;;0.00;0.00;;;12.70;99.90;;;;;;4985273;28;20034;-83
2022/10/15 02:09:05;;;;;;;0.00;0.00;;;12.70;99.90;;;;;;4989245;28;20060;-83
2022/10/15 02:11:43;;;;;;;0.00;0.00;;;12.70;99.90;;;;;;4987186;28;20068;-83
2022/10/15 02:14:14;;;;;;;0.00;0.00;;;12.70;99.90;;;;;;4988672;28;20050;-82
2022/10/15 02:16:46;;;;;;;0.00;0.00;;;12.70;99.90;;;;;;4973546;28;20057;-84
2022/10/15 02:19:22;;;;;;;0.00;0.00;;;12.90;99.90;;;;;;4988927;28;20065;-82
2022/10/15 02:21:55;;;;;;;0.00;0.00;;;12.90;99.90;;;;;;4991066;28;20050;-82
2022/10/15 02:24:24;;;;;;;0.00;0.00;;;12.80;99.90;;;;;;4983351;28;20049;-81
2022/10/15 02:26:53;;;;;;;0.00;0.00;;;12.70;99.90;;;;;;4975089;28;20048;-82
2022/10/15 02:29:23;;;;;;;0.00;0.00;;;12.70;99.90;;;;;;4985721;28;20038;-82
2022/10/15 02:31:51;;;;;;;;;;;12.70;99.90;;;;;;4993075;28;20046;-82
2022/10/15 02:34:21;;;;;;;0.10;0.10;;;12.70;99.90;;;;;;4986404;28;19984;-83
2022/10/15 02:36:49;;;;;;;0.00;0.00;;;12.70;99.90;;;;;;4972430;28;20481;-82
2022/10/15 02:39:19;;;;;;;0.00;0.00;;;12.70;99.90;;;;;;4971450;28;20046;-81
2022/10/15 02:41:47;;;;;;;0.00;0.00;;;12.70;99.90;;;;;;4968850;28;20078;-82
2022/10/15 02:44:14;;;;;;;0.00;0.00;;;12.70;99.90;;;;;;4968610;28;20050;-81
2022/10/15 02:46:41;;;;;;;0.00;0.00;;;12.70;99.90;;;;;;4969443;28;20057;-81
2022/10/15 02:49:08;;;;;;;0.00;0.00;;;12.70;99.90;;;;;;4970184;28;20046;-81
2022/10/15 02:51:36;;;;;;;0.00;0.00;;;12.70;99.90;;;;;;4974115;28;20056;-81
2022/10/15 02:54:05;;;;;;;0.00;0.00;;;12.70;99.90;;;;;;4987700;28;20052;-81
2022/10/15 02:56:33;;;;;;;0.00;0.00;;;12.70;99.90;;;;;;4988640;28;20055;-82
2022/10/15 02:59:00;;;;;;;0.00;0.00;;;13.00;99.90;;;;;;4967183;28;20498;-81
2022/10/15 03:01:27;;;;;;;0.00;0.00;;;12.60;99.90;;;;;;4982352;28;20499;-82
2022/10/15 03:03:54;;;;;;;0.00;0.00;;;12.70;99.90;;;;;;4972180;28;20057;-81
2022/10/15 03:06:20;;;;;;;0.00;0.00;;;12.70;99.90;;;;;;4970297;28;20047;-81
2022/10/15 03:08:48;;;;;;;0.00;0.00;;;12.80;99.90;;;;;;4986629;28;20660;-81
2022/10/15 03:11:15;;;;;;;0.00;0.00;;;12.80;99.90;;;;;;4973046;28;20097;-81
2022/10/15 03:13:43;;;;;;;0.00;0.00;;;;;;;;;;4974678;28;20061;-81
2022/10/15 03:16:10;;;;;;;0.00;0.00;;;12.80;99.90;;;;;;4988801;28;20042;-81
2022/10/15 03:18:37;;;;;;;0.00;0.00;;;12.90;99.90;;;;;;4972624;28;20227;-81
2022/10/15 03:21:06;;;;;;;0.00;0.00;;;12.90;99.90;;;;;;4990690;28;20510;-81
2022/10/15 03:23:33;;;;;;;0.00;0.00;;;12.90;99.90;;;;;;4977904;28;20038;-81
2022/10/15 03:26:02;;;;;;;0.00;0.00;;;12.90;99.90;;;;;;4987616;28;20042;-82
2022/10/15 03:28:28;;;;;;;0.00;0.00;;;12.90;99.90;;;;;;4973130;28;20039;-81
2022/10/15 03:30:55;;;;;;;0.00;0.00;;;12.80;99.90;;;;;;4990022;28;20042;-81
2022/10/15 03:33:22;;;;;;;0.00;0.00;;;12.80;99.90;;;;;;4977792;28;20049;-81
2022/10/15 03:35:52;;;;;;;0.00;0.00;;;13.00;99.90;;;;;;4992445;28;20499;-82
2022/10/15 03:38:19;;;;;;;0.00;0.00;;;12.90;99.90;;;;;;4984727;28;20053;-82
2022/10/15 03:40:46;;;;;;;0.00;0.00;;;12.90;99.90;;;;;;4977595;28;20057;-81
2022/10/15 03:43:14;;;;;;;0.00;0.00;;;12.90;99.90;;;;;;4975197;28;20081;-82
2022/10/15 03:45:41;;;;;;;0.03;0.03;;;12.90;99.90;;;;;;4974783;28;20038;-82
2022/10/15 03:48:07;;;;;;;0.00;0.00;;;12.90;99.90;;;;;;4978860;28;20053;-82
2022/10/15 03:50:34;;;;;;;0.00;0.00;;;13.00;99.90;;;;;;4970725;28;20413;-80
2022/10/15 03:53:02;;;;;;;0.00;0.00;;;13.10;99.90;;;;;;4974613;28;20073;-81
2022/10/15 03:55:29;;;;;;;0.00;0.00;;;13.00;99.90;;;;;;4990354;28;20046;-82
2022/10/15 03:57:56;;;;;;;0.00;0.00;;;13.00;99.90;;;;;;4991749;28;20410;-81
2022/10/15 04:00:25;;;;;;;0.00;0.00;;;13.00;99.90;;;;;;4990041;28;20057;-82
2022/10/15 04:02:51;;;;;;;0.00;0.00;;;13.00;99.90;;;;;;4993035;28;20487;-82
2022/10/15 04:05:19;;;;;;;0.00;0.00;;;13.00;99.90;;;;;;4989188;28;20038;-82
2022/10/15 04:07:46;;;;;;;0.00;0.00;;;13.00;99.90;;;;;;4991437;28;20038;-81
2022/10/15 04:10:13;;;;;;;0.00;0.00;;;12.90;99.90;;;;;;4989623;28;20043;-81
2022/10/15 04:12:39;;;;;;;0.00;0.00;;;12.90;99.90;;;;;;4972318;28;20410;-82
2022/10/15 04:15:07;;;;;;;0.00;0.00;;;12.90;99.90;;;;;;4968827;28;20039;-81
2022/10/15 04:17:35;;;;;;;0.00;0.00;;;12.80;99.90;;;;;;4994285;28;20036;-81
2022/10/15 04:20:03;;;;;;;0.00;0.00;;;12.80;99.90;;;;;;4992432;28;20482;-82
2022/10/15 04:22:30;;;;;;;0.00;0.00;;;12.70;99.90;;;;;;4973006;28;20037;-81
2022/10/15 04:24:57;;;;;;;0.00;0.00;;;;;;;;;;4970059;28;20042;-82
2022/10/15 04:27:24;;;;;;;0.00;0.00;;;12.60;99.90;;;;;;4992476;28;20495;-81
2022/10/15 04:29:51;;;;;;;0.00;0.00;;;13.70;99.90;;;;;;4989020;28;20507;-82
2022/10/15 04:32:18;;;;;;;0.00;0.00;;;12.70;99.90;;;;;;4990048;28;20046;-82
2022/10/15 04:34:48;;;;;;;0.00;0.00;;;12.60;99.90;;;;;;4989775;28;20046;-82
2022/10/15 04:37:14;;;;;;;0.00;0.00;;;12.60;99.90;;;;;;4973918;28;20039;-80
2022/10/15 04:39:41;;;;;;;0.00;0.00;;;12.60;99.90;;;;;;4990758;28;20035;-82
2022/10/15 04:42:08;;;;;;;0.00;0.00;;;12.60;99.90;;;;;;4972946;28;20030;-81
2022/10/15 04:44:35;;;;;;;0.00;0.00;;;12.60;99.90;;;;;;4985093;28;20044;-81
2022/10/15 04:47:02;;;;;;;0.00;0.00;;;12.60;99.90;;;;;;4986857;28;20044;-81
2022/10/15 04:49:28;;;;;;;0.00;0.00;;;12.60;99.90;;;;;;4969909;28;20556;-81
2022/10/15 04:51:57;;;;;;;0.10;0.10;;;12.60;99.90;;;;;;4989291;28;20089;-82
2022/10/15 04:54:24;;;;;;;0.00;0.00;;;12.70;99.90;;;;;;4990569;28;20649;-81
2022/10/15 04:56:50;;;;;;;0.00;0.00;;;12.70;99.90;;;;;;4974123;28;20050;-81
2022/10/15 04:59:17;;;;;;;0.00;0.00;;;12.80;99.90;;;;;;4972058;28;20086;-81
2022/10/15 05:01:44;;;;;;;0.00;0.00;;;12.60;99.90;;;;;;4967394;28;20060;-81
2022/10/15 05:04:11;;;;;;;0.00;0.00;;;12.60;99.90;;;;;;4966488;28;20031;-81
2022/10/15 05:06:38;;;;;;;0.00;0.00;;;12.60;99.90;;;;;;4973853;28;20042;-81
2022/10/15 05:09:06;;;;;;;0.00;0.00;;;12.70;99.90;;;;;;4993279;28;20056;-81
2022/10/15 05:11:36;;;;;;;0.00;0.00;;;13.00;99.90;;;;;;4965028;28;20057;-81
2022/10/15 05:14:03;;;;;;;0.00;0.00;;;12.70;99.90;;;;;;4986085;28;20092;-81
2022/10/15 05:16:30;;;;;;;0.00;0.00;;;12.60;99.90;;;;;;4989423;28;20038;-81
2022/10/15 05:18:58;;;;;;;0.00;0.00;;;12.60;99.90;;;;;;4989303;28;20108;-81
2022/10/15 05:21:26;;;;;;;0.00;0.00;;;12.60;99.90;;;;;;4970884;28;20047;-81
2022/10/15 05:23:53;;;;;;;0.00;0.00;;;12.60;99.90;;;;;;4974052;28;20048;-81
2022/10/15 05:26:24;;;;;;;0.00;0.00;;;12.50;99.90;;;;;;4984901;28;20045;-81
2022/10/15 05:28:51;;;;;;;0.00;0.00;;;12.60;99.90;;;;;;4987944;28;20061;-82
2022/10/15 05:31:20;;;;;;;0.00;0.00;;;12.50;99.90;;;;;;4985019;28;20113;-82
2022/10/15 05:33:48;;;;;;;0.00;0.00;;;12.50;99.90;;;;;;4985346;28;20035;-82
2022/10/15 05:36:17;;;;;;;0.00;0.00;;;12.50;99.90;;;;;;4988400;28;20052;-81
2022/10/15 05:38:44;;;;;;;0.00;0.00;;;12.50;99.90;;;;;;4967113;28;20422;-81
2022/10/15 05:41:11;;;;;;;0.00;0.00;;;12.40;99.90;;;;;;4963479;28;20056;-82
2022/10/15 05:43:39;;;;;;;0.00;0.00;;;12.40;99.90;;;;;;4968282;28;20042;-81
2022/10/15 05:46:07;;;;;;;0.00;0.00;;;12.40;99.90;;;;;;4974152;28;20074;-82
2022/10/15 05:48:34;;;;;;;0.00;0.00;;;12.40;99.90;;;;;;4989102;28;20045;-81
2022/10/15 05:51:02;;;;;;;0.00;0.00;;;12.40;99.90;;;;;;4982004;28;20038;-82
2022/10/15 05:53:29;;;;;;;0.00;0.00;;;12.40;99.90;;;;;;4966041;28;20129;-81
2022/10/15 05:55:57;;;;;;;0.00;0.00;;;12.40;99.90;;;;;;4988118;28;20054;-81
2022/10/15 05:58:24;;;;;;;0.00;0.00;;;12.30;99.90;;;;;;4983460;28;20506;-81
2022/10/15 06:00:57;;;;;;;0.00;0.00;;;12.40;99.90;;;;;;4985993;28;20053;-82
2022/10/15 06:03:24;;;;;;;0.00;0.00;;;12.50;99.90;;;;;;4988427;28;20038;-82
2022/10/15 06:05:52;;;;;;;0.00;0.00;;;12.50;99.90;;;;;;4969330;28;20046;-81
2022/10/15 06:08:19;;;;;;;0.00;0.00;;;12.60;99.90;;;;;;4991518;28;20053;-82
2022/10/15 06:10:46;;;;;;;0.00;0.00;;;12.60;99.90;;;;;;4969894;28;20056;-82
2022/10/15 06:13:14;;;;;;;0.00;0.00;;;12.60;99.90;;;;;;4988280;28;20052;-82
2022/10/15 06:15:42;;;;;;;0.00;0.00;;;12.70;99.90;;;;;;4973654;28;20042;-82
2022/10/15 06:18:14;;;;;;;0.00;0.00;;;13.10;99.90;;;;;;4971558;28;20049;-81
2022/10/15 06:20:42;;;;;;;0.00;0.00;;;12.70;99.90;;;;;;4969028;28;20042;-81
2022/10/15 06:23:10;;;;;;;0.00;0.00;;;12.70;99.90;;;;;;4972205;28;20052;-80
2022/10/15 06:25:37;;;;;;;0.00;0.00;;;12.80;99.90;;;;;;4987275;28;20073;-82
2022/10/15 06:28:05;;;;;;;0.00;0.00;;;12.80;99.90;;;;;;4974327;28;20042;-81
2022/10/15 06:30:32;;;;;;;0.00;0.00;;;12.80;99.90;;;;;;4972870;28;20053;-81
2022/10/15 06:32:59;;;;;;;0.00;0.00;;;12.80;99.90;;;;;;4990077;28;20054;-81
2022/10/15 06:35:33;;;;;;;0.00;0.00;;;12.80;99.90;;;;;;4984853;28;20053;-81
2022/10/15 06:38:00;;;;;;;0.00;0.00;;;12.90;99.90;;;;;;4974440;28;20053;-81
2022/10/15 06:40:29;;;;;;;0.00;0.00;;;12.90;99.90;;;;;;4988332;28;20070;-82
2022/10/15 06:43:03;;;;;;;0.00;0.00;;;13.00;99.90;;;;;;4989494;28;20050;-82
2022/10/15 06:45:30;;;;;;;0.00;0.00;;;13.00;99.90;;;;;;4964063;28;20038;-81
2022/10/15 06:47:56;;;;;;;0.00;0.00;;;13.10;99.90;;;;;;4980010;28;20057;-81
2022/10/15 06:50:23;;;;;;;0.00;0.00;;;13.10;99.90;;;;;;4986848;28;20038;-82
2022/10/15 06:52:51;;;;;;;0.00;0.00;;;13.20;99.90;;;;;;4981564;28;20046;-81
2022/10/15 06:55:18;;;;;;;0.00;0.00;;;13.20;99.90;;;;;;4988091;28;20043;-81
2022/10/15 06:57:47;;;;;;;0.00;0.00;;;13.30;99.90;;;;;;4970071;28;20502;-81
2022/10/15 07:00:14;;;;;;;0.00;0.00;;;13.20;99.90;;;;;;4981712;28;20418;-81
2022/10/15 07:02:41;;;;;;;0.00;0.00;;;13.20;99.90;;;;;;4967411;28;20053;-82
2022/10/15 07:05:09;;;;;;;0.00;0.00;;;13.50;99.90;;;;;;4969350;28;20038;-81
2022/10/15 07:07:35;;;;;;;0.00;0.00;;;13.30;99.90;;;;;;4969304;28;20042;-82
2022/10/15 07:10:04;;;;;;;0.00;0.00;;;13.30;99.90;;;;;;4964999;28;20050;-82
2022/10/15 07:12:31;;;;;;;0.00;0.00;;;13.40;99.90;;;;;;4983683;28;20046;-82
2022/10/15 07:14:58;;;;;;;0.00;0.00;;;13.40;99.90;;;;;;4987853;28;20297;-81
2022/10/15 07:17:26;;;;;;;0.00;0.00;;;13.80;99.90;;;;;;4988745;28;20506;-82
2022/10/15 07:19:53;;;;;;;0.00;0.00;;;13.80;99.90;;;;;;4972302;28;20034;-81
2022/10/15 07:22:20;;;;;;;0.00;0.00;;;13.60;99.90;;;;;;4973898;28;20410;-81
2022/10/15 07:24:48;;;;;;;0.00;0.00;;;13.60;99.90;;;;;;4982400;28;20042;-81
2022/10/15 07:27:16;;;;;;;0.00;0.00;;;13.60;99.90;;;;;;4985659;28;20050;-81
2022/10/15 07:29:45;;;;;;;0.00;0.00;;;13.70;99.90;;;;;;4984308;28;20097;-81
2022/10/15 07:32:12;;;;;;;0.00;0.00;;;14.10;99.90;;;;;;4970435;28;20046;-81
2022/10/15 07:34:38;;;;;;;0.00;0.00;;;13.80;99.90;;;;;;4971794;28;20034;-81
2022/10/15 07:37:05;;;;;;;0.00;0.00;;;13.90;99.90;;;;;;4967803;28;20537;-82
2022/10/15 07:39:32;;;;;;;0.00;0.00;;;13.90;99.90;;;;;;4976224;28;20430;-82
2022/10/15 07:44:34;;;;;;;0.00;0.00;;;13.90;99.90;;;;;;5023665;28;20060;-84
2022/10/15 07:47:00;;;;;;;0.00;0.00;;;13.90;99.90;;;;;;5021291;28;20046;-83
2022/10/15 07:49:27;;;;;;;0.00;0.00;;;14.00;99.90;;;;;;5023263;28;20045;-83
2022/10/15 07:51:54;;;;;;;0.00;0.00;;;14.10;99.90;;;;;;4988998;28;21484;-83
2022/10/15 07:54:21;;;;;;;0.00;0.00;;;14.10;99.90;;;;;;4987816;28;20136;-83
2022/10/15 07:56:48;;;;;;;0.00;0.00;;;14.40;99.90;;;;;;5013895;28;20038;-82
2022/10/15 07:59:15;;;;;;;0.00;0.00;;;14.30;99.90;;;;;;5001835;28;20506;-85
2022/10/15 08:01:43;;;;;;;0.00;0.00;;;14.40;99.90;;;;;;4990140;28;20038;-83
2022/10/15 08:04:14;;;;;;;0.00;0.00;;;14.50;99.90;;;;;;5001745;28;20034;-83
2022/10/15 08:06:41;;;;;;;0.00;0.00;;;;;;;;;;5001721;28;20041;-83
2022/10/15 08:09:08;;;;;;;0.00;0.00;;;;;;;;;;5011194;28;20049;-83
2022/10/15 08:11:35;;;;;;;0.00;0.00;;;14.60;99.90;;;;;;4992935;28;20046;-84
2022/10/15 08:14:02;;;;;;;0.00;0.00;;;14.60;99.90;;;;;;5006560;28;20048;-84
2022/10/15 08:16:30;;;;;;;0.00;0.00;;;;;;;;;;5014269;28;20072;-83
2022/10/15 08:18:59;;;;;;;0.00;0.00;;;14.70;99.90;;;;;;5009531;28;20049;-82
2022/10/15 08:21:26;;;;;;;0.00;0.00;;;14.70;99.90;;;;;;5015421;28;20561;-84
2022/10/15 08:23:53;;;;;;;0.00;0.00;;;14.70;99.90;;;;;;5014264;28;20077;-84
2022/10/15 08:26:19;;;;;;;0.00;0.00;;;14.80;99.90;;;;;;5011301;28;20050;-84
2022/10/15 08:28:46;;;;;;;0.00;0.00;;;14.80;99.90;;;;;;4993444;28;20092;-84
2022/10/15 08:31:14;;;;;;;0.00;0.00;;;14.90;99.90;;;;;;5011505;28;20034;-85
2022/10/15 08:33:40;;;;;;;0.00;0.00;;;15.10;99.90;;;;;;5016573;28;20048;-84
2022/10/15 08:36:09;;;;;;;0.00;0.00;;;14.90;99.90;;;;;;5002075;28;20084;-85
2022/10/15 08:38:36;;;;;;;0.00;0.00;;;15.80;99.90;;;;;;5016898;28;20076;-84
2022/10/15 08:41:14;;;;;;;0.00;0.00;;;15.20;99.90;;;;;;5005086;28;20056;-84
2022/10/15 08:43:45;;;;;;;0.00;0.00;;;15.30;99.90;;;;;;5000609;28;20053;-85
2022/10/15 08:46:17;;;;;;;0.00;0.00;;;15.40;99.90;;;;;;4992490;28;20099;-85
2022/10/15 08:48:48;;;;;;;0.00;0.00;;;15.40;99.90;;;;;;5004647;28;20517;-85
2022/10/15 08:51:19;;;;;;;0.00;0.00;;;15.50;99.90;;;;;;5012493;28;20413;-84
2022/10/15 08:53:49;;;;;;;0.00;0.00;;;15.60;99.90;;;;;;5011256;28;20057;-85
2022/10/15 08:56:22;;;;;;;0.00;0.00;;;15.60;99.90;;;;;;5010186;28;20050;-84
2022/10/15 08:58:55;;;;;;;0.00;0.00;;;15.70;99.90;;;;;;5015632;28;20077;-84
2022/10/15 09:01:30;;;;;;;0.00;0.00;;;16.10;99.90;;;;;;4985183;28;20050;-84
2022/10/15 09:04:10;;;;;;;0.00;0.00;;;15.80;99.90;;;;;;5013959;28;20504;-84
2022/10/15 09:06:39;;;;;;;0.00;0.00;;;15.30;99.90;;;;;;4999279;28;20045;-84
2022/10/15 09:09:13;;;;;;;0.00;0.00;;;16.30;99.90;;;;;;5004498;28;20067;-84
2022/10/15 09:11:50;;;;;;;0.00;0.00;;;16.20;99.90;;;;;;4989181;28;20072;-84
2022/10/15 09:14:20;;;;;;;0.03;0.03;;;16.30;99.90;;;;;;5005209;28;20105;-84
2022/10/15 09:16:49;;;;;;;0.00;0.00;;;16.30;99.90;;;;;;5004325;28;20498;-83
2022/10/15 09:19:18;;;;;;;0.00;0.00;;;16.30;99.90;;;;;;5008391;28;20417;-84
2022/10/15 09:21:48;;;;;;;0.00;0.00;;;16.40;99.90;;;;;;4994585;28;20046;-85
2022/10/15 09:24:17;;;;;;;;;;;16.40;99.90;;;;;;4993555;28;20052;-84
2022/10/15 09:26:53;;;;;;;0.00;0.00;;;16.50;99.90;;;;;;5013725;28;20306;-85
2022/10/15 09:29:26;;;;;;;0.00;0.00;;;16.50;99.90;;;;;;5010856;28;20045;-83
2022/10/15 09:32:02;;;;;;;0.00;0.00;;;16.40;99.90;;;;;;5017101;28;20045;-85
2022/10/15 09:34:34;;;;;;;0.00;0.00;;;16.20;99.90;;;;;;4993128;28;20045;-82
2022/10/15 09:37:09;;;;;;;0.00;0.00;;;16.30;99.90;;;;;;5006674;28;20518;-83
2022/10/15 09:39:44;;;;;;;0.00;0.00;;;16.20;99.90;;;;;;4999661;28;20514;-82
2022/10/15 09:42:25;;;;;;;0.00;0.00;;;16.20;99.90;;;;;;5011233;28;20038;-85
2022/10/15 09:44:56;;;;;;;0.00;0.00;;;16.20;99.90;;;;;;4996618;28;20081;-85
2022/10/15 09:47:26;;;;;;;0.00;0.00;;;16.20;99.90;;;;;;5004443;28;20061;-84
2022/10/15 09:49:53;;;;;;;0.00;0.00;;;16.10;99.90;;;;;;5014215;28;20042;-85
2022/10/15 09:52:29;;;;;;;0.00;0.00;;;16.20;99.90;;;;;;4999948;28;20038;-85
2022/10/15 09:55:06;;;;;;;0.00;0.00;;;16.20;99.90;;;;;;5007230;28;20033;-85
2022/10/15 09:57:35;;;;;;;0.00;0.00;;;18.20;99.90;;;;;;5014229;28;20037;-85
2022/10/15 10:00:07;;;;;;;0.00;0.00;;;16.00;99.90;;;;;;5009506;28;20067;-85
2022/10/15 10:02:33;;;;;;;0.00;0.00;;;15.90;99.90;;;;;;5005202;28;20052;-84
2022/10/15 10:05:19;;;;;;;0.00;0.00;;;16.00;99.90;;;;;;5003366;28;20046;-84
2022/10/15 10:07:47;;;;;;;0.00;0.00;;;16.00;99.90;;;;;;5011062;28;20042;-85
2022/10/15 10:10:24;;;;;;;0.00;0.00;;;16.10;99.90;;;;;;4998958;28;20049;-86
2022/10/15 10:12:51;;;;;;;0.00;0.00;;;16.20;99.90;;;;;;5013493;28;20434;-86
2022/10/15 10:15:32;;;;;;;0.00;0.00;;;16.10;99.90;;;;;;4999610;28;20065;-85
2022/10/15 10:18:00;;;;;;;0.00;0.00;;;16.20;99.90;;;;;;5014386;28;20088;-84
2022/10/15 10:20:28;;;;;;;0.00;0.00;;;16.20;99.90;;;;;;5015505;28;20235;-85
2022/10/15 10:22:58;;;;;;;0.00;0.00;;;16.20;99.90;;;;;;5005187;28;20045;-84
2022/10/15 10:25:29;;;;;;;;;;;16.20;99.90;;;;;;5002146;28;20174;-84
2022/10/15 10:28:02;;;;;;;0.00;0.00;;;16.20;99.90;;;;;;5006004;28;19921;-85
2022/10/15 10:30:33;;;;;;;0.00;0.00;;;16.20;99.90;;;;;;4999191;28;20165;-85
2022/10/15 10:33:00;;;;;;;0.00;0.00;;;16.30;99.90;;;;;;4991185;28;20037;-84
2022/10/15 10:35:34;;;;;;;0.00;0.00;;;16.40;99.90;;;;;;5001018;28;20513;-84
2022/10/15 10:38:02;;;;;;;0.00;0.00;;;16.60;99.90;;;;;;5010556;28;20434;-85
2022/10/15 10:40:32;;;;;;;0.00;0.00;;;16.70;99.90;;;;;;5002527;28;20072;-84
2022/10/15 10:43:15;;;;;;;0.00;0.00;;;18.20;99.90;;;;;;5007821;28;20073;-85
2022/10/15 10:45:55;;;;;;;0.00;0.00;;;17.20;99.90;;;;;;5001080;28;20046;-87
2022/10/15 10:48:24;;;;;;;0.00;0.00;;;17.20;99.90;;;;;;4996284;28;20046;-82
2022/10/15 10:51:03;;;;;;;0.00;0.00;;;17.30;99.90;;;;;;5009726;28;20055;-84
2022/10/15 10:53:45;;;;;;;0.00;0.00;;;17.40;99.90;;;;;;5008146;28;20461;-80
2022/10/15 10:56:14;;;;;;;0.00;0.00;;;17.50;99.90;;;;;;5003110;28;20034;-83
2022/10/15 10:58:41;;;;;;;0.00;0.00;;;17.60;99.90;;;;;;4984777;28;20106;-83
2022/10/15 11:01:11;;;;;;;0.00;0.00;;;17.60;99.90;;;;;;4999856;28;20331;-84
2022/10/15 11:03:40;;;;;;;0.00;0.00;;;17.70;99.90;;;;;;5006199;28;20053;-83
2022/10/15 11:06:31;;;;;;;0.00;0.00;;;17.70;99.90;;;;;;5002155;28;20048;-84
2022/10/15 11:09:10;;;;;;;0.00;0.00;;;17.70;99.90;;;;;;4993770;28;20096;-83
2022/10/15 11:11:45;;;;;;;0.00;0.00;;;17.80;99.90;;;;;;5007752;28;20121;-83
2022/10/15 11:14:23;;;;;;;0.00;0.00;;;17.80;99.90;;;;;;5007660;28;20048;-82
2022/10/15 11:16:56;;;;;;;0.00;0.00;;;17.80;99.90;;;;;;5006694;28;20073;-83
2022/10/15 11:19:31;;;;;;;0.00;0.00;;;17.90;99.90;;;;;;5009228;28;20060;-85
2022/10/15 11:22:39;;;;;;;0.00;0.00;;;17.80;99.90;;;;;;5000248;28;20057;-83
2022/10/15 11:25:16;;;;;;;0.00;0.00;;;17.80;99.90;;;;;;5005535;28;20030;-84
2022/10/15 11:27:55;;;;;;;0.00;0.00;;;17.80;99.90;;;;;;4987132;28;20084;-84
2022/10/15 11:30:33;;;;;;;0.00;0.00;;;17.70;99.90;;;;;;5001464;28;20128;-82
2022/10/15 11:33:15;;;;;;;0.00;0.00;;;17.70;99.90;;;;;;5008987;28;20041;-83
2022/10/15 11:35:49;;;;;;;0.00;0.00;;;17.80;99.90;;;;;;5009095;28;20466;-83
2022/10/15 11:38:28;;;;;;;0.00;0.00;;;17.80;99.90;;;;;;5009209;28;20034;-82
2022/10/15 11:41:13;;;;;;;0.00;0.00;;;17.80;99.90;;;;;;4994620;28;20417;-82
2022/10/15 11:43:55;;;;;;;0.00;0.00;;;17.80;99.90;;;;;;5011361;28;20069;-84
2022/10/15 11:46:29;;;;;;;0.00;0.00;;;17.80;99.90;;;;;;5016472;28;20112;-83
2022/10/15 11:49:13;;;;;;;0.00;0.00;;;17.80;99.90;;;;;;5010048;28;20072;-82
2022/10/15 11:51:59;;;;;;;0.00;0.00;;;17.70;99.90;;;;;;4999308;28;20034;-82
2022/10/15 11:54:33;;;;;;;0.00;0.00;;;17.60;99.90;;;;;;4998408;28;20121;-85
2022/10/15 11:57:03;;;;;;;0.00;0.00;;;19.10;99.90;;;;;;5006677;28;20034;-82
2022/10/15 11:59:36;;;;;;;0.00;0.00;;;17.80;99.90;;;;;;5004472;28;20046;-81
2022/10/15 12:02:10;;;;;;;0.00;0.00;;;17.80;99.90;;;;;;5007488;28;20490;-82
2022/10/15 12:04:41;;;;;;;0.00;0.00;;;17.90;99.90;;;;;;5010694;28;20050;-83
2022/10/15 12:07:15;;;;;;;0.00;0.00;;;17.90;99.90;;;;;;5010921;28;20127;-84
2022/10/15 12:09:47;;;;;;;0.00;0.00;;;17.80;99.90;;;;;;5011863;28;20054;-83
2022/10/15 12:12:25;;;;;;;0.00;0.00;;;17.80;99.90;;;;;;5009352;28;20042;-82
2022/10/15 12:15:12;;;;;;;0.00;0.00;;;17.80;99.90;;;;;;5014066;28;20038;-83
2022/10/15 12:17:46;;;;;;;0.00;0.00;;;17.80;99.90;;;;;;5014929;28;20061;-83
2022/10/15 12:20:15;;;;;;;0.00;0.00;;;17.90;99.90;;;;;;5022157;28;20116;-83
2022/10/15 12:22:54;;;;;;;0.00;0.00;;;17.80;99.90;;;;;;5016966;28;20069;-83
2022/10/15 12:25:40;;;;;;;0.00;0.00;;;17.90;99.90;;;;;;5009027;28;20049;-83
2022/10/15 12:28:15;;;;;;;0.08;0.08;;;17.80;99.90;;;;;;5013992;28;20078;-82
2022/10/15 12:30:56;;;;;;;0.00;0.00;;;17.80;99.90;;;;;;5020453;28;20045;-84
2022/10/15 12:33:35;;;;;;;0.00;0.00;;;17.80;99.90;;;;;;5007664;28;20066;-83
2022/10/15 12:36:08;;;;;;;0.00;0.00;;;18.00;99.90;;;;;;5014913;28;20129;-82
2022/10/15 12:38:38;;;;;;;0.00;0.00;;;17.90;99.90;;;;;;5009178;28;20514;-82
2022/10/15 12:41:07;;;;;;;0.00;0.00;;;17.90;99.90;;;;;;5006450;28;20052;-82
2022/10/15 12:43:40;;;;;;;0.00;0.00;;;18.00;99.90;;;;;;5012701;28;20050;-81
2022/10/15 12:46:09;;;;;;;0.00;0.00;;;18.20;99.90;;;;;;5003412;28;20591;-84
2022/10/15 12:48:38;;;;;;;;;;;18.20;99.90;;;;;;5016687;28;20038;-84
2022/10/15 12:51:38;;;;;;;0.00;0.00;;;18.30;99.90;;;;;;5009652;28;19936;-84
2022/10/15 12:54:32;;;;;;;0.00;0.00;;;18.30;99.90;;;;;;5021884;28;20135;-85
2022/10/15 12:56:59;;;;;;;0.00;0.00;;;18.30;99.90;;;;;;5011719;28;20042;-81
2022/10/15 12:59:57;;;;;;;0.00;0.00;;;18.40;99.90;;;;;;5011091;28;20040;-85
2022/10/15 13:02:36;;;;;;;0.00;0.00;;;18.50;99.90;;;;;;5005150;28;20557;-85
2022/10/15 13:05:05;;;;;;;;;;;18.60;99.90;;;;;;5009917;28;20076;-86
2022/10/15 13:07:34;;;;;;;0.00;0.00;;;18.50;99.90;;;;;;5013096;28;20361;-84
2022/10/15 13:10:02;;;;;;;0.00;0.00;;;18.60;99.90;;;;;;5013830;28;20045;-84